createdAt,value
2018-09-02T00:03:37.200Z,101092.53
2018-09-02T00:08:40.698Z,101092.53
2018-09-02T00:13:44.409Z,101096.31
2018-09-02T00:18:48.440Z,101092.60
2018-09-02T00:23:52.052Z,101092.95
2018-09-02T00:28:56.162Z,101083.67
2018-09-02T00:33:59.996Z,101082.09
2018-09-02T00:39:03.715Z,101083.29
2018-09-02T00:44:07.742Z,101081.16
2018-09-02T00:49:12.595Z,101081.22
2018-09-02T00:54:16.099Z,101072.48
2018-09-02T00:59:19.757Z,101073.88
2018-09-02T01:04:23.658Z,101079.89
2018-09-02T01:09:27.497Z,101091.41
2018-09-02T01:14:31.106Z,101080.87
2018-09-02T01:19:34.988Z,101080.11
2018-09-02T01:24:38.605Z,101083.47
2018-09-02T01:29:42.580Z,101076.92
2018-09-02T01:34:46.485Z,101069.58
2018-09-02T01:39:50.026Z,101065.19
2018-09-02T01:44:53.489Z,101058.66
2018-09-02T01:49:57.085Z,101067.78
2018-09-02T01:55:00.586Z,101071.54
2018-09-02T02:00:04.108Z,101079.88
2018-09-02T02:05:07.900Z,101070.97
2018-09-02T02:10:11.800Z,101070.57
2018-09-02T02:15:15.349Z,101074.75
2018-09-02T02:20:18.877Z,101071.37
2018-09-02T02:25:22.483Z,101067.61
2018-09-02T02:30:26.051Z,101060.86
2018-09-02T02:35:29.947Z,101052.92
2018-09-02T02:40:33.634Z,101060.08
2018-09-02T02:45:37.147Z,101060.47
2018-09-02T02:50:40.751Z,101058.09
2018-09-02T02:55:44.278Z,101050.95
2018-09-02T03:00:47.847Z,101046.39
2018-09-02T03:05:51.504Z,101048.77
2018-09-02T03:10:55.322Z,101049.56
2018-09-02T03:15:59.024Z,101042.46
2018-09-02T03:21:02.739Z,101038.48
2018-09-02T03:26:06.477Z,101038.30
2018-09-02T03:31:10.173Z,101032.94
2018-09-02T03:36:13.683Z,101023.22
2018-09-02T03:41:17.277Z,101022.23
2018-09-02T03:46:20.786Z,101027.84
2018-09-02T03:51:24.209Z,101030.57
2018-09-02T03:56:27.696Z,101026.05
2018-09-02T04:01:31.170Z,101026.46
2018-09-02T04:06:35.112Z,101022.47
2018-09-02T04:11:38.795Z,101026.45
2018-09-02T04:16:42.296Z,101031.41
2018-09-02T04:21:45.823Z,101016.72
2018-09-02T04:26:49.663Z,101028.44
2018-09-02T04:31:53.310Z,101024.07
2018-09-02T04:36:56.801Z,101021.73
2018-09-02T04:42:00.289Z,101010.44
2018-09-02T04:47:03.986Z,101007.66
2018-09-02T04:52:07.793Z,101007.66
2018-09-02T04:57:11.289Z,101010.80
2018-09-02T05:02:15.436Z,101013.24
2018-09-02T05:07:19.043Z,101006.44
2018-09-02T05:12:22.738Z,101003.27
2018-09-02T05:17:28.231Z,101007.17
2018-09-02T05:22:31.770Z,101003.22
2018-09-02T05:27:35.288Z,101008.56
2018-09-02T05:32:38.961Z,101002.02
2018-09-02T05:37:42.811Z,101000.10
2018-09-02T05:42:46.490Z,100997.72
2018-09-02T05:47:50.740Z,100999.69
2018-09-02T05:52:54.189Z,101005.50
2018-09-02T05:57:57.738Z,100991.22
2018-09-02T06:03:01.421Z,100997.16
2018-09-02T06:08:04.916Z,100994.53
2018-09-02T06:13:08.623Z,101000.84
2018-09-02T06:18:12.244Z,100994.33
2018-09-02T06:23:15.645Z,101001.89
2018-09-02T06:28:19.377Z,101007.05
2018-09-02T06:33:23.056Z,101000.55
2018-09-02T06:38:26.513Z,100999.15
2018-09-02T06:43:29.982Z,101007.24
2018-09-02T06:48:33.515Z,101002.72
2018-09-02T06:53:36.937Z,101003.27
2018-09-02T06:58:40.411Z,101008.58
2018-09-02T07:03:43.837Z,101002.22
2018-09-02T07:08:47.309Z,101003.37
2018-09-02T07:13:50.745Z,101006.68
2018-09-02T07:18:54.217Z,101007.86
2018-09-02T07:23:57.697Z,101014.00
2018-09-02T07:29:01.150Z,101014.98
2018-09-02T07:34:04.759Z,101022.22
2018-09-02T07:39:09.176Z,101009.80
2018-09-02T07:44:12.834Z,101011.66
2018-09-02T07:49:16.248Z,101008.88
2018-09-02T07:54:19.915Z,101020.57
2018-09-02T07:59:23.378Z,101022.12
2018-09-02T08:04:26.848Z,101018.47
2018-09-02T08:09:30.561Z,101025.83
2018-09-02T08:14:34.324Z,101020.43
2018-09-02T08:19:37.825Z,101010.36
2018-09-02T08:24:41.279Z,101006.91
2018-09-02T08:29:44.690Z,101020.83
2018-09-02T08:34:48.227Z,101000.38
2018-09-02T08:39:51.699Z,101001.05
2018-09-02T08:44:55.194Z,101003.17
2018-09-02T08:49:58.645Z,101002.98
2018-09-02T08:55:02.433Z,101004.72
2018-09-02T09:00:07.068Z,100998.17
2018-09-02T09:05:10.587Z,101007.16
2018-09-02T09:10:14.823Z,101016.42
2018-09-02T09:15:18.335Z,101005.52
2018-09-02T09:20:21.938Z,101003.23
2018-09-02T09:25:26.389Z,101006.08
2018-09-02T09:30:29.899Z,100992.39
2018-09-02T09:35:33.411Z,100999.58
2018-09-02T09:40:36.927Z,100990.34
2018-09-02T09:45:40.621Z,100995.92
2018-09-02T09:50:44.102Z,100991.89
2018-09-02T09:55:47.580Z,100987.77
2018-09-02T10:00:52.442Z,100978.25
2018-09-02T10:05:55.935Z,100973.21
2018-09-02T10:10:59.452Z,100977.65
2018-09-02T10:16:03.099Z,100969.36
2018-09-02T10:21:06.523Z,100963.89
2018-09-02T10:26:10.126Z,100961.08
2018-09-02T10:31:14.316Z,100957.62
2018-09-02T10:36:17.826Z,100960.49
2018-09-02T10:41:21.549Z,100957.12
2018-09-02T10:46:25.242Z,100946.73
2018-09-02T10:51:28.709Z,100927.09
2018-09-02T10:56:32.170Z,100924.08
2018-09-02T11:01:35.889Z,100918.81
2018-09-02T11:06:39.559Z,100908.11
2018-09-02T11:11:43.342Z,100907.86
2018-09-02T11:16:46.869Z,100906.74
2018-09-02T11:21:50.382Z,100905.77
2018-09-02T11:26:53.875Z,100897.08
2018-09-02T11:31:57.331Z,100885.34
2018-09-02T11:37:00.771Z,100901.83
2018-09-02T11:42:04.469Z,100892.00
2018-09-02T11:47:07.924Z,100899.45
2018-09-02T11:52:11.398Z,100892.84
2018-09-02T11:57:15.082Z,100886.11
2018-09-02T12:02:18.939Z,100891.77
2018-09-02T12:07:22.377Z,100894.98
2018-09-02T12:12:25.842Z,100888.23
2018-09-02T12:17:29.463Z,100891.61
2018-09-02T12:22:33.921Z,100889.44
2018-09-02T12:27:37.733Z,100889.67
2018-09-02T12:32:43.092Z,100895.17
2018-09-02T12:37:46.909Z,100893.15
2018-09-02T12:42:50.627Z,100890.86
2018-09-02T12:47:54.361Z,100881.74
2018-09-02T12:52:57.982Z,100878.38
2018-09-02T12:58:01.465Z,100879.41
2018-09-02T13:03:06.138Z,100871.98
2018-09-02T13:08:09.557Z,100868.08
2018-09-02T13:13:13.241Z,100870.25
2018-09-02T13:18:16.945Z,100873.95
2018-09-02T13:23:20.691Z,100871.40
2018-09-02T13:28:24.421Z,100860.12
2018-09-02T13:33:28.256Z,100861.98
2018-09-02T13:38:31.711Z,100860.25
2018-09-02T13:43:35.143Z,100856.83
2018-09-02T13:48:38.786Z,100848.27
2018-09-02T13:53:42.278Z,100846.14
2018-09-02T13:58:46.051Z,100839.75
2018-09-02T14:03:49.661Z,100836.77
2018-09-02T14:08:53.070Z,100836.17
2018-09-02T14:13:56.574Z,100824.28
2018-09-02T14:19:00.333Z,100820.03
2018-09-02T14:24:04.197Z,100815.57
2018-09-02T14:29:07.734Z,100817.16
2018-09-02T14:34:11.217Z,100819.58
2018-09-02T14:39:15.358Z,100819.73
2018-09-02T14:44:18.810Z,100819.28
2018-09-02T14:49:22.640Z,100814.24
2018-09-02T14:54:26.136Z,100819.63
2018-09-02T14:59:29.680Z,100830.53
2018-09-02T15:04:33.121Z,100823.16
2018-09-02T15:09:36.671Z,100819.01
2018-09-02T15:14:40.286Z,100819.25
2018-09-02T15:19:43.799Z,100816.23
2018-09-02T15:24:47.254Z,100803.36
2018-09-02T15:29:50.684Z,100813.73
2018-09-02T15:34:54.526Z,100814.54
2018-09-02T15:39:58.089Z,100813.50
2018-09-02T15:45:02.288Z,100807.80
2018-09-02T15:50:06.917Z,100809.09
2018-09-02T15:55:10.537Z,100811.80
2018-09-02T16:00:15.354Z,100810.08
2018-09-02T16:05:19.743Z,100807.20
2018-09-02T16:10:23.233Z,100809.58
2018-09-02T16:15:26.726Z,100802.98
2018-09-02T16:20:30.242Z,100804.98
2018-09-02T16:25:33.675Z,100803.73
2018-09-02T16:30:37.157Z,100804.13
2018-09-02T16:35:40.635Z,100799.12
2018-09-02T16:40:44.117Z,100790.31
2018-09-02T16:45:47.965Z,100791.30
2018-09-02T16:50:51.678Z,100789.52
2018-09-02T16:55:55.158Z,100784.41
2018-09-02T17:00:59.226Z,100772.94
2018-09-02T17:06:03.798Z,100769.97
2018-09-02T17:11:08.602Z,100773.13
2018-09-02T17:16:13.594Z,100773.84
2018-09-02T17:21:17.353Z,100772.81
2018-09-02T17:26:22.043Z,100773.45
2018-09-02T17:31:27.344Z,100779.39
2018-09-02T17:36:30.834Z,100764.95
2018-09-02T17:41:34.329Z,100770.10
2018-09-02T17:46:38.681Z,100771.09
2018-09-02T17:51:44.626Z,100765.14
2018-09-02T17:56:49.025Z,100769.23
2018-09-02T18:01:53.780Z,100762.95
2018-09-02T18:06:57.504Z,100774.56
2018-09-02T18:12:02.054Z,100779.25
2018-09-02T18:17:07.025Z,100772.47
2018-09-02T18:22:10.515Z,100769.64
2018-09-02T18:27:16.877Z,100762.27
2018-09-02T18:32:20.347Z,100756.84
2018-09-02T18:37:25.586Z,100751.67
2018-09-02T18:42:29.586Z,100749.44
2018-09-02T18:47:34.948Z,100743.85
2018-09-02T18:52:38.980Z,100733.12
2018-09-02T18:57:42.683Z,100730.69
2018-09-02T19:02:47.586Z,100724.31
2018-09-02T19:07:51.093Z,100724.09
2018-09-02T19:12:55.372Z,100717.31
2018-09-02T19:17:59.294Z,100706.80
2018-09-02T19:23:03.118Z,100707.14
2018-09-02T19:28:07.051Z,100706.73
2018-09-02T19:33:12.432Z,100701.17
2018-09-02T19:38:17.429Z,100696.94
2018-09-02T19:43:21.132Z,100693.56
2018-09-02T19:48:24.943Z,100688.37
2018-09-02T19:53:28.812Z,100691.16
2018-09-02T19:58:32.771Z,100694.28
2018-09-02T20:03:36.242Z,100695.52
2018-09-02T20:08:41.507Z,100690.91
2018-09-02T20:13:45.461Z,100690.30
2018-09-02T20:18:51.545Z,100695.86
2018-09-02T20:29:00.512Z,100683.92
2018-09-02T20:34:05.509Z,100674.56
2018-09-02T20:39:10.899Z,100669.02
2018-09-02T20:44:15.550Z,100667.63
2018-09-02T20:49:20.098Z,100666.64
2018-09-02T20:54:24.776Z,100672.55
2018-09-02T20:59:29.541Z,100667.97
2018-09-02T21:04:34.853Z,100653.47
2018-09-02T21:09:40.053Z,100651.66
2018-09-02T21:14:43.749Z,100647.50
2018-09-02T21:19:49.124Z,100639.76
2018-09-02T21:24:54.938Z,100628.23
2018-09-02T21:29:59.941Z,100619.28
2018-09-02T21:35:06.629Z,100608.36
2018-09-02T21:40:10.158Z,100604.00
2018-09-02T21:45:14.931Z,100593.67
2018-09-02T21:50:18.602Z,100585.52
2018-09-02T21:55:22.735Z,100578.12
2018-09-02T22:00:26.296Z,100576.16
2018-09-02T22:05:30.790Z,100573.95
2018-09-02T22:10:34.297Z,100571.17
2018-09-02T22:15:39.163Z,100563.51
2018-09-02T22:20:42.689Z,100555.06
2018-09-02T22:30:48.792Z,100549.62
2018-09-02T22:35:52.321Z,100540.49
2018-09-02T22:40:55.905Z,100534.33
2018-09-02T22:45:59.405Z,100544.82
2018-09-02T22:51:03.073Z,100540.31
2018-09-02T22:56:06.665Z,100541.92
2018-09-02T23:01:10.314Z,100540.72
2018-09-02T23:06:13.821Z,100527.84
2018-09-02T23:11:17.337Z,100523.27
2018-09-02T23:16:20.842Z,100501.70
2018-09-02T23:21:24.353Z,100522.10
2018-09-02T23:26:27.919Z,100503.44
2018-09-02T23:31:31.389Z,100512.03
2018-09-02T23:36:35.035Z,100500.73
2018-09-02T23:41:38.534Z,100490.41
2018-09-02T23:46:42.042Z,100493.79
2018-09-02T23:51:45.621Z,100493.00
2018-09-02T23:56:49.300Z,100490.64
